Pigalopp — LG3587 — position and weather

sailwx.info

Track history (hours):
 
Tides and Currents Weather Stations Pressure Air Temp Water Temp Dewpoint Dewpoint Depression Visibility Wind Speed Wind Dir Waves Ship Positions

Pigalopp

Last reported at 2017-Oct-29 11:07 UTC. Time now 2017-Nov-22 03:46 UTC.
Position N 60°27' E 005°06'.
Warning: this ship's position is 23 days out of date.

Length 13 m.

Type: Sailing vessel. MMSI: 257735890.

Date/timePositionNaut miles runAvg speedWind from/ knotsBaromVisibWave heightAir tempDewpointWater temp
2017-Oct-29 11:07N 60°27' E 005°06'0 0.0
2017-Oct-29 10:58N 60°27' E 005°06'0 0.0
2017-Oct-29 10:28N 60°27' E 005°06'0 0.0
2017-Oct-29 09:58N 60°27' E 005°06'0 0.0
2017-Oct-29 09:28N 60°27' E 005°06'0 0.0
2017-Oct-29 08:58N 60°27' E 005°06'0 0.0
2017-Oct-29 08:28N 60°27' E 005°06'0 0.0
2017-Oct-29 07:58N 60°27' E 005°06'0 0.0
2017-Oct-29 07:28N 60°27' E 005°06'0 0.0
2017-Oct-29 06:58N 60°27' E 005°06'0 0.0
2017-Oct-29 06:28N 60°27' E 005°06'0 0.0
2017-Oct-29 05:58N 60°27' E 005°06'0 0.0
2017-Oct-29 05:28N 60°27' E 005°06'0 0.0
2017-Oct-29 04:58N 60°27' E 005°06'0 0.0
2017-Oct-29 04:28N 60°27' E 005°06'0 0.0
2017-Oct-29 03:55N 60°27' E 005°06'0 0.0
2017-Oct-28 18:59N 60°27' E 005°06'0 0.0
2017-Oct-28 18:29N 60°27' E 005°06'0 0.0
2017-Oct-28 17:59N 60°27' E 005°06'0 0.0
2017-Oct-28 17:29N 60°27' E 005°06'0 0.0
2017-Oct-28 16:59N 60°27' E 005°06'0 0.0
2017-Oct-28 16:29N 60°27' E 005°06'0 0.0
2017-Oct-28 16:00N 60°27' E 005°06'  
2017-Oct-22 13:54N 60°27' E 005°06'1 2.2
2017-Oct-22 13:29N 60°26' E 005°06'2 3.5
2017-Oct-22 13:00N 60°26' E 005°03'2 4.0
2017-Oct-22 12:30N 60°28' E 005°02'3 5.7
2017-Oct-22 12:00N 60°26' E 005°05'2 3.4
2017-Oct-22 11:29N 60°24' E 005°07'2 3.5
2017-Oct-22 11:00N 60°23' E 005°09'1 2.4
2017-Oct-22 10:30N 60°24' E 005°09'2 4.5
2017-Oct-22 10:00N 60°26' E 005°07'  
Track history (hours):
 
Tides and Currents Weather Stations Pressure Air Temp Water Temp Dewpoint Dewpoint Depression Visibility Wind Speed Wind Dir Waves Ship Positions

Pigalopp

Last reported at 2017-Oct-29 11:07 UTC. Time now 2017-Nov-22 03:46 UTC.
Position N 60°27' E 005°06'.
Warning: this ship's position is 23 days out of date.

Length 13 m.

Type: Sailing vessel. MMSI: 257735890.

Date/timePositionNaut miles runAvg speedWind from/ knotsBaromVisibWave heightAir tempDewpointWater temp
2017-Oct-29 11:07N 60°27' E 005°06'0 0.0
2017-Oct-29 10:58N 60°27' E 005°06'0 0.0
2017-Oct-29 10:28N 60°27' E 005°06'0 0.0
2017-Oct-29 09:58N 60°27' E 005°06'0 0.0
2017-Oct-29 09:28N 60°27' E 005°06'0 0.0
2017-Oct-29 08:58N 60°27' E 005°06'0 0.0
2017-Oct-29 08:28N 60°27' E 005°06'0 0.0
2017-Oct-29 07:58N 60°27' E 005°06'0 0.0
2017-Oct-29 07:28N 60°27' E 005°06'0 0.0
2017-Oct-29 06:58N 60°27' E 005°06'0 0.0
2017-Oct-29 06:28N 60°27' E 005°06'0 0.0
2017-Oct-29 05:58N 60°27' E 005°06'0 0.0
2017-Oct-29 05:28N 60°27' E 005°06'0 0.0
2017-Oct-29 04:58N 60°27' E 005°06'0 0.0
2017-Oct-29 04:28N 60°27' E 005°06'0 0.0
2017-Oct-29 03:55N 60°27' E 005°06'0 0.0
2017-Oct-28 18:59N 60°27' E 005°06'0 0.0
2017-Oct-28 18:29N 60°27' E 005°06'0 0.0
2017-Oct-28 17:59N 60°27' E 005°06'0 0.0
2017-Oct-28 17:29N 60°27' E 005°06'0 0.0
2017-Oct-28 16:59N 60°27' E 005°06'0 0.0
2017-Oct-28 16:29N 60°27' E 005°06'0 0.0
2017-Oct-28 16:00N 60°27' E 005°06'  
2017-Oct-22 13:54N 60°27' E 005°06'1 2.2
2017-Oct-22 13:29N 60°26' E 005°06'2 3.5
2017-Oct-22 13:00N 60°26' E 005°03'2 4.0
2017-Oct-22 12:30N 60°28' E 005°02'3 5.7
2017-Oct-22 12:00N 60°26' E 005°05'2 3.4
2017-Oct-22 11:29N 60°24' E 005°07'2 3.5
2017-Oct-22 11:00N 60°23' E 005°09'1 2.4
2017-Oct-22 10:30N 60°24' E 005°09'2 4.5
2017-Oct-22 10:00N 60°26' E 005°07'  

Dump ship's entire track history